Time;durP1;ratioP1;P1;durP2;ratioP2;P2;SDS_P1;SDS_P2;PMS_P1;PMS_P2;Temp;Humidity;BMP_temperature;BMP_pressure;BME280_temperature;BME280_humidity;BME280_pressure;Samples;Min_cycle;Max_cycle;Signal;HPM_P1;HPM_P2
2023/12/26 00:02:24;;;;;;;18.80;3.95;;;24.90;84.10;;;;;;5025426;28;20037;-76
2023/12/26 00:04:53;;;;;;;22.95;4.88;;;25.00;84.10;;;;;;5026269;28;20022;-87
2023/12/26 00:07:23;;;;;;;17.30;3.58;;;25.10;83.90;;;;;;5022123;28;20111;-77
2023/12/26 00:09:51;;;;;;;14.63;3.50;;;25.20;83.10;;;;;;5012421;28;20026;-77
2023/12/26 00:12:19;;;;;;;16.13;3.53;;;25.20;82.60;;;;;;5013592;28;20109;-76
2023/12/26 00:14:48;;;;;;;14.45;3.20;;;25.30;82.40;;;;;;5006690;28;20022;-86
2023/12/26 00:17:18;;;;;;;16.65;3.28;;;25.40;82.40;;;;;;5010598;28;20072;-77
2023/12/26 00:19:46;;;;;;;16.30;3.50;;;25.50;82.10;;;;;;5014432;28;20060;-83
2023/12/26 00:22:14;;;;;;;27.80;4.13;;;25.50;81.80;;;;;;5026640;28;20030;-85
2023/12/26 00:24:49;;;;;;;19.15;4.47;;;25.50;81.40;;;;;;5017561;28;20030;-85
2023/12/26 00:27:17;;;;;;;16.85;3.70;;;25.50;81.10;;;;;;5011403;28;20465;-77
2023/12/26 00:29:45;;;;;;;13.57;3.42;;;25.50;81.10;;;;;;5013841;28;20026;-86
2023/12/26 00:32:15;;;;;;;19.73;3.50;;;25.50;80.90;;;;;;5019372;28;20021;-79
2023/12/26 00:34:42;;;;;;;15.32;4.13;;;25.50;81.10;;;;;;5019771;28;20046;-80
2023/12/26 00:37:13;;;;;;;11.90;3.22;;;25.60;80.80;;;;;;5027032;28;20025;-89
2023/12/26 00:39:43;;;;;;;15.55;3.42;;;25.70;80.30;;;;;;5016434;28;20030;-88
2023/12/26 00:42:11;;;;;;;9.73;2.78;;;25.70;78.80;;;;;;5012174;28;20042;-78
2023/12/26 00:44:40;;;;;;;10.93;3.30;;;25.70;78.90;;;;;;5016444;28;20106;-78
2023/12/26 00:47:08;;;;;;;19.52;3.75;;;25.80;79.40;;;;;;5022039;28;20439;-88
2023/12/26 00:49:36;;;;;;;14.40;3.35;;;25.80;79.40;;;;;;5028258;28;20029;-77
2023/12/26 00:52:06;;;;;;;14.02;4.40;;;25.90;79.20;;;;;;5003134;28;20030;-79
2023/12/26 00:54:35;;;;;;;15.32;3.28;;;26.00;78.50;;;;;;5028833;28;20065;-80
2023/12/26 00:57:03;;;;;;;14.50;3.72;;;26.00;78.00;;;;;;5018062;28;20032;-77
2023/12/26 00:59:37;;;;;;;18.50;4.30;;;26.00;77.90;;;;;;5013257;28;20101;-77
2023/12/26 01:02:05;;;;;;;11.07;3.50;;;26.20;78.20;;;;;;5010334;28;20034;-88
2023/12/26 01:04:32;;;;;;;19.13;4.25;;;26.10;77.70;;;;;;5019687;28;20029;-86
2023/12/26 01:07:06;;;;;;;19.38;3.88;;;26.10;78.00;;;;;;5013500;28;20050;-83
2023/12/26 01:09:36;;;;;;;13.57;3.50;;;26.20;78.00;;;;;;5011542;28;20428;-77
2023/12/26 01:12:07;;;;;;;15.00;3.42;;;26.20;78.40;;;;;;5007452;28;20449;-85
2023/12/26 01:14:35;;;;;;;20.38;4.25;;;26.30;78.10;;;;;;5011212;28;20477;-87
2023/12/26 01:17:03;;;;;;;15.65;3.72;;;26.30;77.90;;;;;;5015822;28;20030;-84
2023/12/26 01:19:31;;;;;;;17.27;3.63;;;26.40;78.00;;;;;;5011840;28;20419;-76
2023/12/26 01:21:58;;;;;;;12.00;2.72;;;26.30;78.10;;;;;;5013041;28;20103;-77
2023/12/26 01:24:26;;;;;;;20.73;4.20;;;26.40;77.90;;;;;;5013441;28;20450;-76
2023/12/26 01:26:54;;;;;;;16.00;3.63;;;26.40;78.10;;;;;;5016271;28;20416;-76
2023/12/26 01:29:22;;;;;;;17.67;3.50;;;26.40;78.00;;;;;;5017484;28;20508;-76
2023/12/26 01:31:51;;;;;;;10.73;2.72;;;26.40;77.50;;;;;;5010042;28;20076;-87
2023/12/26 01:34:19;;;;;;;13.02;3.17;;;26.40;77.80;;;;;;5017136;28;20025;-85
2023/12/26 01:36:47;;;;;;;18.17;3.30;;;26.30;78.10;;;;;;5013263;28;20022;-89
2023/12/26 01:39:16;;;;;;;11.85;3.40;;;26.30;77.90;;;;;;4993996;28;20034;-84
2023/12/26 01:41:45;;;;;;;14.00;3.50;;;26.40;78.10;;;;;;5002194;28;20061;-87
2023/12/26 01:44:17;;;;;;;19.20;3.80;;;26.40;77.70;;;;;;5012587;28;20100;-81
2023/12/26 01:46:45;;;;;;;20.08;3.60;;;26.40;77.90;;;;;;5012114;28;20543;-77
2023/12/26 01:49:13;;;;;;;16.50;3.85;;;26.50;77.90;;;;;;5013280;28;20018;-88
2023/12/26 01:51:42;;;;;;;14.85;3.53;;;26.60;77.50;;;;;;5011862;28;20386;-80
2023/12/26 01:54:10;;;;;;;14.00;3.35;;;26.70;77.80;;;;;;5011800;28;20112;-76
2023/12/26 01:56:39;;;;;;;21.40;3.45;;;26.80;77.40;;;;;;5011699;28;20481;-78
2023/12/26 01:59:07;;;;;;;12.88;3.15;;;26.90;76.60;;;;;;5013846;28;20611;-87
2023/12/26 02:01:37;;;;;;;20.00;4.18;;;26.90;76.80;;;;;;5013449;28;20468;-88
2023/12/26 02:04:06;;;;;;;15.55;3.42;;;27.00;77.00;;;;;;5021768;28;20037;-79
2023/12/26 02:06:37;;;;;;;14.55;3.50;;;27.10;76.40;;;;;;5008172;28;20119;-77
2023/12/26 02:09:05;;;;;;;17.13;3.50;;;27.20;76.50;;;;;;5025248;28;20041;-88
2023/12/26 02:11:34;;;;;;;18.05;4.20;;;27.20;76.60;;;;;;5009208;28;20496;-85
2023/12/26 02:14:06;;;;;;;19.13;4.60;;;27.30;76.40;;;;;;5008258;28;20045;-88
2023/12/26 02:16:39;;;;;;;20.17;3.60;;;27.40;76.70;;;;;;5011898;28;20070;-86
2023/12/26 02:19:11;;;;;;;14.48;3.22;;;27.50;77.00;;;;;;5011914;28;20037;-85
2023/12/26 02:21:39;;;;;;;17.90;3.83;;;27.60;76.60;;;;;;5011595;28;20396;-81
2023/12/26 02:24:10;;;;;;;13.95;3.83;;;27.60;75.70;;;;;;5024065;28;20035;-89
2023/12/26 02:26:41;;;;;;;11.07;3.00;;;27.70;74.80;;;;;;5027718;28;20025;-78
2023/12/26 02:29:13;;;;;;;21.33;3.90;;;27.70;74.50;;;;;;5032813;28;20472;-79
2023/12/26 02:31:42;;;;;;;12.43;3.00;;;27.70;74.80;;;;;;5020281;28;20510;-85
2023/12/26 02:34:15;;;;;;;17.45;3.83;;;27.70;74.70;;;;;;5011712;28;20084;-88
2023/12/26 02:36:43;;;;;;;10.60;3.47;;;27.80;75.20;;;;;;5011687;28;20113;-80
2023/12/26 02:39:11;;;;;;;21.45;4.00;;;27.80;74.90;;;;;;5034764;28;20021;-77
2023/12/26 02:41:39;;;;;;;16.73;3.63;;;27.80;74.00;;;;;;5016333;28;20424;-87
2023/12/26 02:44:23;;;;;;;17.17;4.00;;;27.90;73.20;;;;;;5014507;28;20050;-83
2023/12/26 02:46:52;;;;;;;14.30;4.00;;;28.00;74.00;;;;;;5013251;28;20030;-87
2023/12/26 02:49:21;;;;;;;13.45;3.20;;;28.00;73.10;;;;;;5016358;28;20030;-81
2023/12/26 02:51:49;;;;;;;17.58;4.00;;;28.10;73.30;;;;;;5032876;28;20030;-87
2023/12/26 02:54:20;;;;;;;12.68;2.88;;;28.10;72.30;;;;;;5019494;28;20481;-87
2023/12/26 02:56:48;;;;;;;13.45;2.72;;;28.00;72.10;;;;;;5015763;28;20485;-84
2023/12/26 02:59:17;;;;;;;9.55;2.58;;;28.00;71.90;;;;;;5027974;28;20017;-88
2023/12/26 03:01:49;;;;;;;14.35;3.40;;;28.00;72.40;;;;;;5030805;28;20021;-82
2023/12/26 03:04:17;;;;;;;11.38;2.75;;;27.90;72.20;;;;;;5015497;28;20029;-86
2023/12/26 03:06:44;;;;;;;14.95;3.35;;;27.80;71.90;;;;;;5033464;28;20041;-89
2023/12/26 03:09:15;;;;;;;14.15;3.30;;;27.80;71.80;;;;;;5035206;28;20113;-83
2023/12/26 03:11:49;;;;;;;13.30;2.97;;;27.70;72.20;;;;;;5034019;28;20014;-78
2023/12/26 03:14:17;;;;;;;10.00;2.85;;;27.60;72.40;;;;;;5019251;28;20476;-88
2023/12/26 03:16:49;;;;;;;10.82;2.70;;;27.60;72.10;;;;;;5015501;28;20077;-81
2023/12/26 03:19:17;;;;;;;13.13;3.00;;;27.50;71.80;;;;;;5015775;28;20029;-84
2023/12/26 03:21:45;;;;;;;17.55;3.17;;;27.40;72.60;;;;;;5012604;28;20022;-80
2023/12/26 03:24:13;;;;;;;12.63;3.10;;;27.30;72.80;;;;;;5022229;28;20034;-87
2023/12/26 03:26:42;;;;;;;7.78;2.25;;;27.20;73.10;;;;;;5014154;28;20030;-81
2023/12/26 03:29:11;;;;;;;15.10;3.55;;;27.20;73.50;;;;;;5017317;28;20025;-86
2023/12/26 03:31:49;;;;;;;8.98;2.40;;;27.20;73.80;;;;;;5001466;28;20029;-79
2023/12/26 03:34:17;;;;;;;11.30;2.78;;;27.10;73.80;;;;;;4995894;28;20022;-86
2023/12/26 03:36:51;;;;;;;7.50;2.42;;;27.00;74.10;;;;;;5015463;28;20112;-87
2023/12/26 03:39:21;;;;;;;12.93;2.83;;;27.00;74.20;;;;;;4997400;28;20122;-88
2023/12/26 03:41:53;;;;;;;8.75;2.78;;;26.90;74.10;;;;;;5013926;28;20116;-84
2023/12/26 03:44:21;;;;;;;8.98;2.95;;;26.80;74.20;;;;;;5013526;28;20044;-87
2023/12/26 03:46:53;;;;;;;11.10;2.67;;;26.70;74.40;;;;;;5014779;28;20384;-84
2023/12/26 03:49:21;;;;;;;12.38;2.78;;;26.70;74.60;;;;;;5014028;28;20034;-82
2023/12/26 03:51:49;;;;;;;9.18;2.10;;;26.60;74.60;;;;;;5012664;28;20022;-83
2023/12/26 03:54:18;;;;;;;9.38;2.15;;;26.50;75.00;;;;;;5014648;28;20029;-83
2023/12/26 03:56:46;;;;;;;10.43;2.72;;;26.40;75.20;;;;;;5025862;28;20025;-86
2023/12/26 03:59:18;;;;;;;9.50;2.42;;;26.40;75.30;;;;;;5015387;28;20065;-86
2023/12/26 04:01:48;;;;;;;9.73;2.60;;;26.30;75.60;;;;;;4995843;28;20065;-78
2023/12/26 04:04:18;;;;;;;11.73;3.22;;;26.30;75.80;;;;;;5014304;28;20473;-80
2023/12/26 04:06:46;;;;;;;14.05;3.40;;;26.20;75.80;;;;;;5013900;28;20157;-78
2023/12/26 04:09:14;;;;;;;12.70;3.08;;;26.20;76.00;;;;;;5014733;28;20036;-84
2023/12/26 04:11:42;;;;;;;11.93;2.75;;;26.10;76.10;;;;;;5014237;28;20511;-80
2023/12/26 04:14:13;;;;;;;13.45;2.88;;;26.10;76.20;;;;;;5013679;28;20037;-77
2023/12/26 04:16:41;;;;;;;8.50;2.83;;;26.00;76.30;;;;;;5012903;28;20116;-77
2023/12/26 04:19:08;;;;;;;10.80;3.03;;;26.00;76.20;;;;;;5014587;28;20113;-76
2023/12/26 04:21:37;;;;;;;12.38;3.28;;;25.90;75.80;;;;;;5028627;28;20026;-83
2023/12/26 04:24:05;;;;;;;6.30;2.63;;;25.80;75.10;;;;;;5018601;28;20025;-76
2023/12/26 04:26:33;;;;;;;11.05;3.15;;;25.80;75.40;;;;;;5025822;28;20038;-82
2023/12/26 04:29:05;;;;;;;13.90;3.28;;;25.80;75.70;;;;;;5028204;28;20251;-87
2023/12/26 04:31:33;;;;;;;14.65;3.20;;;25.80;75.90;;;;;;5033196;28;20490;-77
2023/12/26 04:34:03;;;;;;;8.65;3.03;;;25.80;76.20;;;;;;5027560;28;20032;-76
2023/12/26 04:36:37;;;;;;;10.65;3.22;;;25.70;76.10;;;;;;5010856;28;20026;-80
2023/12/26 04:39:05;;;;;;;10.10;3.25;;;25.70;76.40;;;;;;5014317;28;20647;-77
2023/12/26 04:41:33;;;;;;;14.77;3.55;;;25.70;76.80;;;;;;5014262;28;20029;-82
2023/12/26 04:44:00;;;;;;;9.90;2.83;;;25.70;76.90;;;;;;5008680;28;20385;-85
2023/12/26 04:46:28;;;;;;;12.35;3.00;;;25.60;77.00;;;;;;5011883;28;20029;-79
2023/12/26 04:48:56;;;;;;;11.55;3.30;;;25.60;77.40;;;;;;5020481;28;20087;-85
2023/12/26 04:51:29;;;;;;;9.70;2.63;;;25.60;77.60;;;;;;5016856;28;20026;-79
2023/12/26 04:53:59;;;;;;;9.95;3.03;;;25.60;77.90;;;;;;5018660;28;20037;-79
2023/12/26 04:56:27;;;;;;;13.38;3.35;;;25.50;78.10;;;;;;5014089;28;20062;-86
2023/12/26 04:58:57;;;;;;;12.57;2.88;;;25.60;78.30;;;;;;5014061;28;20029;-76
2023/12/26 05:01:24;;;;;;;16.10;2.83;;;25.50;78.70;;;;;;5015894;28;20565;-76
2023/12/26 05:03:52;;;;;;;9.50;2.55;;;25.50;78.70;;;;;;5019454;28;20030;-81
2023/12/26 05:06:23;;;;;;;10.52;2.78;;;25.40;79.00;;;;;;5011765;28;20077;-76
2023/12/26 05:08:50;;;;;;;13.50;2.90;;;25.40;78.90;;;;;;5011647;28;20044;-76
2023/12/26 05:11:25;;;;;;;7.50;2.50;;;25.30;78.90;;;;;;5012600;28;20061;-77
2023/12/26 05:13:52;;;;;;;11.68;2.30;;;25.30;79.00;;;;;;5029830;28;20029;-82
2023/12/26 05:16:21;;;;;;;9.80;2.63;;;25.30;79.20;;;;;;5010791;28;20026;-83
2023/12/26 05:18:48;;;;;;;15.93;2.60;;;25.30;79.40;;;;;;5013707;28;20469;-86
2023/12/26 05:21:23;;;;;;;10.50;2.65;;;25.30;79.40;;;;;;5018758;28;20500;-86
2023/12/26 05:23:51;;;;;;;8.27;2.10;;;25.30;79.60;;;;;;5028414;28;20089;-85
2023/12/26 05:26:19;;;;;;;6.07;2.20;;;25.30;79.70;;;;;;5033046;28;20075;-82
2023/12/26 05:28:46;;;;;;;5.32;1.70;;;25.20;79.70;;;;;;5033194;28;20029;-83
2023/12/26 05:31:18;;;;;;;7.07;1.90;;;25.20;79.80;;;;;;5016810;28;20018;-77
2023/12/26 05:33:46;;;;;;;7.22;2.17;;;25.20;79.80;;;;;;5015560;28;20408;-79
2023/12/26 05:36:13;;;;;;;6.55;1.73;;;25.20;80.00;;;;;;5019636;28;20089;-81
2023/12/26 05:38:41;;;;;;;12.90;2.15;;;25.20;80.10;;;;;;5020592;28;20054;-82
2023/12/26 05:41:08;;;;;;;10.60;2.10;;;25.20;80.30;;;;;;5013105;28;20019;-86
2023/12/26 05:43:38;;;;;;;9.10;1.83;;;25.10;80.70;;;;;;5004684;28;20034;-81
2023/12/26 05:46:06;;;;;;;14.88;2.50;;;25.10;80.90;;;;;;5026264;28;20022;-85
2023/12/26 05:48:34;;;;;;;7.90;1.95;;;25.10;81.20;;;;;;5025869;28;20038;-83
2023/12/26 05:51:01;;;;;;;8.85;2.20;;;25.00;81.40;;;;;;5007473;28;20405;-82
2023/12/26 05:53:30;;;;;;;11.85;2.13;;;25.00;81.40;;;;;;5018855;28;20084;-80
2023/12/26 05:55:58;;;;;;;8.82;1.92;;;25.00;81.60;;;;;;5029398;28;20022;-85
2023/12/26 05:58:26;;;;;;;9.07;2.08;;;24.90;81.90;;;;;;5014308;28;20036;-87
2023/12/26 06:00:54;;;;;;;5.47;1.58;;;25.00;82.00;;;;;;5017976;28;20034;-84
2023/12/26 06:03:22;;;;;;;9.20;1.67;;;25.00;82.00;;;;;;5012378;28;20569;-79
2023/12/26 06:05:49;;;;;;;10.32;2.40;;;24.90;82.10;;;;;;5010910;28;20397;-86
2023/12/26 06:08:17;;;;;;;10.75;2.00;;;24.90;82.30;;;;;;5000200;28;20117;-87
2023/12/26 06:10:44;;;;;;;8.23;2.20;;;24.90;82.50;;;;;;5019471;28;20385;-84
2023/12/26 06:13:11;;;;;;;18.40;1.85;;;24.90;82.30;;;;;;5015155;28;20033;-86
2023/12/26 06:15:39;;;;;;;8.63;1.95;;;24.80;82.10;;;;;;5016883;28;20533;-86
2023/12/26 06:18:06;;;;;;;7.22;1.75;;;24.80;82.20;;;;;;5015554;28;20037;-86
2023/12/26 06:20:34;;;;;;;10.55;1.75;;;24.80;82.20;;;;;;5018492;28;20032;-85
2023/12/26 06:23:02;;;;;;;9.32;1.88;;;24.80;82.10;;;;;;5023771;28;20042;-79
2023/12/26 06:25:30;;;;;;;9.27;2.00;;;24.80;82.10;;;;;;5024302;28;20100;-81
2023/12/26 06:27:58;;;;;;;10.32;2.10;;;24.80;82.20;;;;;;5018526;28;20444;-85
2023/12/26 06:30:25;;;;;;;9.52;2.03;;;24.80;82.20;;;;;;5014045;28;20029;-77
2023/12/26 06:32:52;;;;;;;9.65;1.88;;;24.80;82.20;;;;;;5008443;28;20141;-85
2023/12/26 06:35:20;;;;;;;9.13;2.25;;;24.90;82.20;;;;;;5023910;28;20443;-78
2023/12/26 06:37:47;;;;;;;10.68;2.30;;;24.90;82.10;;;;;;5015289;28;20112;-83
2023/12/26 06:40:14;;;;;;;8.93;1.75;;;24.90;82.00;;;;;;5014334;28;20477;-82
2023/12/26 06:42:42;;;;;;;9.85;2.33;;;24.90;82.00;;;;;;5013673;28;20064;-75
2023/12/26 06:45:10;;;;;;;9.60;2.03;;;24.90;81.80;;;;;;5022352;28;20023;-76
2023/12/26 06:47:40;;;;;;;8.48;1.85;;;24.90;82.00;;;;;;5008901;28;20030;-89
2023/12/26 06:50:07;;;;;;;9.07;2.03;;;25.00;82.30;;;;;;4996669;28;20037;-77
2023/12/26 06:52:36;;;;;;;13.07;2.40;;;25.00;82.60;;;;;;4996201;28;20061;-88
2023/12/26 06:55:03;;;;;;;8.05;2.05;;;25.00;82.80;;;;;;4996778;28;20481;-77
2023/12/26 06:57:30;;;;;;;12.82;2.63;;;24.90;83.20;;;;;;5016264;28;20029;-79
2023/12/26 06:59:58;;;;;;;10.95;2.25;;;24.90;83.30;;;;;;5027594;28;20040;-76
2023/12/26 07:02:25;;;;;;;8.95;2.10;;;24.80;83.30;;;;;;5024412;28;20060;-89
2023/12/26 07:04:52;;;;;;;10.60;1.88;;;24.80;83.60;;;;;;5015711;28;20049;-81
2023/12/26 07:07:20;;;;;;;10.15;1.95;;;24.80;83.50;;;;;;5016224;28;20068;-90
2023/12/26 07:09:47;;;;;;;12.30;2.00;;;24.80;83.70;;;;;;5016000;28;20049;-77
2023/12/26 07:12:15;;;;;;;9.55;2.25;;;24.80;83.50;;;;;;5012297;28;20026;-82
2023/12/26 07:14:42;;;;;;;7.43;2.22;;;24.80;83.50;;;;;;5021115;28;20083;-88
2023/12/26 07:17:10;;;;;;;9.73;2.03;;;24.80;83.40;;;;;;5035824;28;20422;-76
2023/12/26 07:19:38;;;;;;;13.73;1.90;;;24.80;83.40;;;;;;5035825;28;20026;-87
2023/12/26 07:22:06;;;;;;;12.25;2.13;;;24.80;83.10;;;;;;5035493;28;20028;-78
2023/12/26 07:24:34;;;;;;;10.60;2.20;;;24.80;82.90;;;;;;5032778;28;20041;-78
2023/12/26 07:27:01;;;;;;;9.70;2.10;;;24.80;82.60;;;;;;5014564;28;20018;-82
2023/12/26 07:29:28;;;;;;;8.88;2.00;;;24.70;82.20;;;;;;5015550;28;20112;-82
2023/12/26 07:31:56;;;;;;;8.93;2.15;;;24.60;81.90;;;;;;5018257;28;20029;-80
2023/12/26 07:34:23;;;;;;;12.20;2.50;;;24.60;81.90;;;;;;5035246;28;20108;-85
2023/12/26 07:36:52;;;;;;;7.97;1.88;;;24.60;82.10;;;;;;5035717;28;20014;-89
2023/12/26 07:39:19;;;;;;;8.93;1.92;;;24.60;82.00;;;;;;5035570;28;20496;-89
2023/12/26 07:41:47;;;;;;;8.40;2.45;;;24.50;81.80;;;;;;5035427;28;20131;-88
2023/12/26 07:44:14;;;;;;;15.13;2.22;;;24.40;81.40;;;;;;5035246;28;20033;-88
2023/12/26 07:46:42;;;;;;;7.80;2.05;;;24.50;81.20;;;;;;5033730;28;20032;-89
2023/12/26 07:49:12;;;;;;;12.52;2.28;;;24.50;80.10;;;;;;5025818;28;20030;-82
2023/12/26 07:51:39;;;;;;;9.43;2.15;;;24.50;80.30;;;;;;5028263;28;20026;-81
2023/12/26 07:54:07;;;;;;;13.70;2.47;;;24.50;80.10;;;;;;5032722;28;20020;-79
2023/12/26 07:56:34;;;;;;;8.65;2.85;;;24.50;79.60;;;;;;5018818;28;20058;-79
2023/12/26 07:59:02;;;;;;;9.00;3.53;;;24.50;79.40;;;;;;5011231;28;20052;-82
2023/12/26 08:01:29;;;;;;;11.20;3.65;;;24.50;79.30;;;;;;5014308;28;20366;-83
2023/12/26 08:03:57;;;;;;;8.63;2.90;;;24.50;78.80;;;;;;5015081;28;20121;-80
2023/12/26 08:06:24;;;;;;;10.35;2.90;;;24.50;78.40;;;;;;5020346;28;20045;-89
2023/12/26 08:08:52;;;;;;;8.32;2.90;;;24.50;78.80;;;;;;5015063;28;20083;-89
2023/12/26 08:11:22;;;;;;;9.48;2.90;;;24.50;78.60;;;;;;5014089;28;20021;-87
2023/12/26 08:13:53;;;;;;;7.10;2.33;;;24.50;78.90;;;;;;5019739;28;20030;-80
2023/12/26 08:16:20;;;;;;;7.65;2.53;;;24.50;79.20;;;;;;5014304;28;20029;-85
2023/12/26 08:18:48;;;;;;;9.90;1.98;;;24.40;79.20;;;;;;5015183;28;20381;-82
2023/12/26 08:21:15;;;;;;;8.15;2.42;;;24.40;79.50;;;;;;5001868;28;20037;-80
2023/12/26 08:23:42;;;;;;;7.75;1.95;;;24.40;79.60;;;;;;5015051;28;20489;-90
2023/12/26 08:26:10;;;;;;;7.45;2.50;;;24.40;79.60;;;;;;5016141;28;20377;-88
2023/12/26 08:28:37;;;;;;;6.95;2.47;;;24.40;79.70;;;;;;5014031;28;20030;-88
2023/12/26 08:31:04;;;;;;;8.45;1.90;;;24.40;79.90;;;;;;5015596;28;20097;-83
2023/12/26 08:33:33;;;;;;;9.38;2.55;;;24.40;79.70;;;;;;5012982;28;20385;-81
2023/12/26 08:36:01;;;;;;;5.07;2.05;;;24.40;79.60;;;;;;5013980;28;20053;-88
2023/12/26 08:38:28;;;;;;;7.65;2.20;;;24.30;79.70;;;;;;5006942;28;20034;-82
2023/12/26 08:40:56;;;;;;;9.13;2.30;;;24.30;79.90;;;;;;5034258;28;20080;-83
2023/12/26 08:43:23;;;;;;;8.63;2.67;;;24.40;79.90;;;;;;5033809;28;20041;-76
2023/12/26 08:45:50;;;;;;;7.85;1.98;;;24.30;80.00;;;;;;5033197;28;20492;-79
2023/12/26 08:48:18;;;;;;;6.13;2.40;;;24.30;80.10;;;;;;5025716;28;20084;-78
2023/12/26 08:50:45;;;;;;;7.93;2.33;;;24.40;80.10;;;;;;5017753;28;20026;-88
2023/12/26 08:53:13;;;;;;;14.15;2.40;;;24.30;80.20;;;;;;5020594;28;20358;-82
2023/12/26 08:55:41;;;;;;;7.93;2.42;;;24.30;80.30;;;;;;5014086;28;20022;-86
2023/12/26 08:58:09;;;;;;;8.00;2.28;;;24.30;80.30;;;;;;5011290;28;20065;-86
2023/12/26 09:00:37;;;;;;;7.80;2.05;;;24.30;80.40;;;;;;5031577;28;20029;-88
2023/12/26 09:03:07;;;;;;;4.68;2.22;;;24.30;80.30;;;;;;5014466;28;20048;-85
2023/12/26 09:05:34;;;;;;;8.52;1.77;;;24.30;80.20;;;;;;5017842;28;20029;-79
2023/12/26 09:08:03;;;;;;;7.28;2.47;;;24.30;80.00;;;;;;5013270;28;20100;-84
2023/12/26 09:10:31;;;;;;;5.95;2.10;;;24.30;80.00;;;;;;5015437;28;20025;-77
2023/12/26 09:12:58;;;;;;;7.38;2.72;;;24.30;80.10;;;;;;5023182;28;20026;-85
2023/12/26 09:15:25;;;;;;;6.40;3.42;;;24.20;79.90;;;;;;5013358;28;20105;-87
2023/12/26 09:17:53;;;;;;;8.93;3.63;;;24.30;80.20;;;;;;5012256;28;20092;-77
2023/12/26 09:20:21;;;;;;;10.88;5.72;;;24.20;79.90;;;;;;5013558;28;20109;-77
2023/12/26 09:22:48;;;;;;;8.90;5.40;;;24.20;79.90;;;;;;5019245;28;20104;-78
2023/12/26 09:25:15;;;;;;;8.93;5.13;;;24.20;79.90;;;;;;5013312;28;20025;-89
2023/12/26 09:27:44;;;;;;;9.60;4.72;;;24.20;80.10;;;;;;5015763;28;20029;-82
2023/12/26 09:30:12;;;;;;;9.98;4.00;;;24.20;80.00;;;;;;5018750;28;20028;-86
2023/12/26 09:32:39;;;;;;;7.22;4.03;;;24.20;80.20;;;;;;5013353;28;20022;-84
2023/12/26 09:35:07;;;;;;;9.20;3.20;;;24.20;80.10;;;;;;5012523;28;20056;-76
2023/12/26 09:37:38;;;;;;;7.65;2.30;;;24.20;80.00;;;;;;5013266;28;20030;-89
2023/12/26 09:40:13;;;;;;;7.45;2.25;;;24.20;79.90;;;;;;5011982;28;20052;-83
2023/12/26 09:42:42;;;;;;;9.48;2.80;;;24.10;80.00;;;;;;5006603;28;20034;-89
2023/12/26 09:45:12;;;;;;;6.30;2.30;;;24.20;80.00;;;;;;5011582;28;20041;-90
2023/12/26 09:47:43;;;;;;;9.70;2.53;;;24.10;80.10;;;;;;5012815;28;20025;-87
2023/12/26 09:50:11;;;;;;;6.57;2.47;;;24.10;80.20;;;;;;5015849;28;20057;-90
2023/12/26 09:52:39;;;;;;;6.05;2.30;;;24.10;80.30;;;;;;5033120;28;20028;-90
2023/12/26 09:55:07;;;;;;;5.93;2.15;;;24.10;80.30;;;;;;5030975;28;20027;-91
2023/12/26 09:57:34;;;;;;;10.80;2.67;;;24.00;80.30;;;;;;5024308;28;20030;-90
2023/12/26 10:00:02;;;;;;;10.23;3.10;;;24.10;80.40;;;;;;5013895;28;20034;-83
2023/12/26 10:02:30;;;;;;;7.32;2.17;;;24.10;80.50;;;;;;5012884;28;20465;-84
2023/12/26 10:04:57;;;;;;;5.97;1.90;;;24.10;80.70;;;;;;5009365;28;20097;-85
2023/12/26 10:07:25;;;;;;;4.60;1.80;;;24.10;80.60;;;;;;5012359;28;20046;-79
2023/12/26 10:09:53;;;;;;;7.82;2.50;;;24.00;80.70;;;;;;5012550;28;20022;-84
2023/12/26 10:12:25;;;;;;;5.57;1.83;;;24.00;80.90;;;;;;5016529;28;20033;-77
2023/12/26 10:15:05;;;;;;;8.82;2.47;;;24.00;80.90;;;;;;5015987;28;20022;-79
2023/12/26 10:17:34;;;;;;;13.38;2.70;;;24.00;81.20;;;;;;5010430;28;20816;-82
2023/12/26 10:20:03;;;;;;;8.50;2.70;;;24.00;81.30;;;;;;5017057;28;20029;-77
2023/12/26 10:22:31;;;;;;;6.72;1.65;;;24.10;81.20;;;;;;5010982;28;20041;-77
2023/12/26 10:25:00;;;;;;;12.43;2.38;;;24.00;81.30;;;;;;5012203;28;20030;-76
2023/12/26 10:27:27;;;;;;;9.63;2.42;;;24.10;81.40;;;;;;5014952;28;20372;-80
2023/12/26 10:29:56;;;;;;;11.98;2.50;;;24.10;81.60;;;;;;5014448;28;20026;-83
2023/12/26 10:32:26;;;;;;;10.00;2.30;;;24.10;81.60;;;;;;5011975;28;20374;-89
2023/12/26 10:34:54;;;;;;;9.23;2.20;;;24.20;81.70;;;;;;5011261;28;20026;-81
2023/12/26 10:37:22;;;;;;;10.50;2.00;;;24.10;81.70;;;;;;5012174;28;20121;-82
2023/12/26 10:39:51;;;;;;;9.90;1.95;;;24.20;81.80;;;;;;5003824;28;20018;-80
2023/12/26 10:42:19;;;;;;;11.43;2.47;;;24.20;81.80;;;;;;5014968;28;20034;-86
2023/12/26 10:44:48;;;;;;;11.70;2.45;;;24.20;81.90;;;;;;5011547;28;20110;-76
2023/12/26 10:47:16;;;;;;;14.60;2.60;;;24.20;81.90;;;;;;5011024;28;20097;-76
2023/12/26 10:49:45;;;;;;;12.90;3.03;;;24.20;82.10;;;;;;5013946;28;20033;-78
2023/12/26 10:52:16;;;;;;;12.40;2.40;;;24.30;82.50;;;;;;5009993;28;20034;-78
2023/12/26 10:54:46;;;;;;;12.10;2.60;;;24.30;82.30;;;;;;5013778;28;20030;-82
2023/12/26 10:57:14;;;;;;;12.93;2.60;;;24.30;82.40;;;;;;5024184;28;20017;-83
2023/12/26 10:59:42;;;;;;;11.13;2.53;;;24.30;82.50;;;;;;5023929;28;20109;-77
2023/12/26 11:02:09;;;;;;;15.60;2.83;;;24.40;82.60;;;;;;5024677;28;20053;-79
2023/12/26 11:04:37;;;;;;;12.32;2.63;;;24.50;83.10;;;;;;5023257;28;20543;-78
2023/12/26 11:07:04;;;;;;;11.95;2.67;;;24.50;82.90;;;;;;5024094;28;20046;-78
2023/12/26 11:09:32;;;;;;;14.02;2.20;;;24.50;83.00;;;;;;5017147;28;20493;-82
2023/12/26 11:11:59;;;;;;;10.68;2.08;;;24.50;83.10;;;;;;5027389;28;20095;-84
2023/12/26 11:14:27;;;;;;;16.42;2.88;;;24.40;83.20;;;;;;5032366;28;20451;-77
2023/12/26 11:16:54;;;;;;;11.65;3.20;;;24.50;83.50;;;;;;5032938;28;20039;-77
2023/12/26 11:19:22;;;;;;;12.68;2.45;;;24.50;83.40;;;;;;5030774;28;20034;-87
2023/12/26 11:21:49;;;;;;;21.80;2.70;;;24.40;83.60;;;;;;5027384;28;20110;-77
2023/12/26 11:24:17;;;;;;;12.48;2.40;;;24.50;83.80;;;;;;5017865;28;20034;-77
2023/12/26 11:26:44;;;;;;;14.13;2.45;;;24.50;83.70;;;;;;5025359;28;20113;-77
2023/12/26 11:29:12;;;;;;;14.80;2.78;;;24.40;83.90;;;;;;5011493;28;20148;-77
2023/12/26 11:31:39;;;;;;;12.32;2.40;;;24.40;83.90;;;;;;5021856;28;20026;-78
2023/12/26 11:34:11;;;;;;;10.75;2.30;;;24.40;84.00;;;;;;5013924;28;20473;-87
2023/12/26 11:36:41;;;;;;;13.32;2.60;;;24.40;84.00;;;;;;5021459;28;20112;-77
2023/12/26 11:39:09;;;;;;;18.85;3.20;;;24.40;84.00;;;;;;5029700;28;20133;-77
2023/12/26 11:41:36;;;;;;;15.38;2.35;;;24.40;84.10;;;;;;5018912;28;20025;-84
2023/12/26 11:44:03;;;;;;;11.82;2.28;;;24.40;84.00;;;;;;5017930;28;20120;-88
2023/12/26 11:46:31;;;;;;;12.07;2.42;;;24.40;84.30;;;;;;5023529;28;20026;-89
2023/12/26 11:48:58;;;;;;;13.35;2.10;;;24.40;84.10;;;;;;5032662;28;20022;-77
2023/12/26 11:51:26;;;;;;;9.18;2.10;;;24.40;84.10;;;;;;5033453;28;20029;-76
2023/12/26 11:53:53;;;;;;;10.27;2.33;;;24.50;84.10;;;;;;5015092;28;20032;-77
2023/12/26 11:56:20;;;;;;;16.00;2.75;;;24.40;84.00;;;;;;5026408;28;20028;-89
2023/12/26 11:58:48;;;;;;;11.68;2.30;;;24.50;84.20;;;;;;5033368;28;20087;-77
2023/12/26 12:01:16;;;;;;;14.25;2.42;;;24.40;84.20;;;;;;5028396;28;20109;-77
2023/12/26 12:03:43;;;;;;;8.15;1.95;;;24.40;84.30;;;;;;5033358;28;20102;-77
2023/12/26 12:06:17;;;;;;;13.38;1.92;;;24.50;84.00;;;;;;5014493;28;20045;-81
2023/12/26 12:09:03;;;;;;;7.13;1.60;;;24.50;84.10;;;;;;5014729;28;20036;-78
2023/12/26 12:11:31;;;;;;;15.60;2.58;;;24.50;84.10;;;;;;5023631;28;20071;-88
2023/12/26 12:13:59;;;;;;;11.65;2.25;;;24.50;84.10;;;;;;5006478;28;20401;-88
2023/12/26 12:16:27;;;;;;;12.05;1.98;;;24.50;84.00;;;;;;5021268;28;20060;-89
2023/12/26 12:19:15;;;;;;;10.30;2.17;;;24.50;84.10;;;;;;5033360;28;20033;-87
2023/12/26 12:21:42;;;;;;;9.43;2.05;;;24.50;84.20;;;;;;5028480;28;20029;-78
2023/12/26 12:24:19;;;;;;;9.82;1.92;;;24.50;84.20;;;;;;5018031;28;20112;-77
2023/12/26 12:27:18;;;;;;;8.95;2.22;;;24.40;84.20;;;;;;5019662;28;20028;-78
2023/12/26 12:29:59;;;;;;;10.52;2.10;;;24.40;84.10;;;;;;4980449;28;20034;-84
2023/12/26 12:32:34;;;;;;;15.10;2.42;;;24.50;84.20;;;;;;5017667;28;20421;-78
2023/12/26 12:35:16;;;;;;;7.78;1.83;;;24.40;84.10;;;;;;5011927;28;20026;-84
2023/12/26 12:37:47;;;;;;;11.15;2.60;;;24.40;84.10;;;;;;5015677;28;20496;-82
2023/12/26 12:40:14;;;;;;;6.63;1.52;;;24.40;84.30;;;;;;5026908;28;20473;-82
2023/12/26 12:42:45;;;;;;;12.15;2.00;;;24.40;84.10;;;;;;5030403;28;20503;-82
2023/12/26 12:45:12;;;;;;;5.63;1.75;;;24.40;84.00;;;;;;5016195;28;20392;-87
2023/12/26 12:47:40;;;;;;;11.90;1.90;;;24.40;83.90;;;;;;5016648;28;20370;-77
2023/12/26 12:50:07;;;;;;;9.32;2.28;;;24.40;84.20;;;;;;5013127;28;20022;-77